sensor_id;sensor_type;location;lat;lon;timestamp;pressure;altitude;pressure_sealevel;temperature;humidity
20368;BME280;10343;52.402;9.796;2022-09-09T00:01:04;100385.69;;;14.83;100.00
20368;BME280;10343;52.402;9.796;2022-09-09T00:03:41;100381.38;;;14.81;100.00
20368;BME280;10343;52.402;9.796;2022-09-09T00:06:21;100391.25;;;14.78;100.00
20368;BME280;10343;52.402;9.796;2022-09-09T00:08:59;100386.84;;;14.77;100.00
20368;BME280;10343;52.402;9.796;2022-09-09T00:11:32;100387.00;;;14.74;100.00
20368;BME280;10343;52.402;9.796;2022-09-09T00:14:11;100387.91;;;14.73;100.00
20368;BME280;10343;52.402;9.796;2022-09-09T00:16:44;100380.84;;;14.72;100.00
20368;BME280;10343;52.402;9.796;2022-09-09T00:19:20;100386.19;;;14.72;100.00
20368;BME280;10343;52.402;9.796;2022-09-09T00:21:59;100378.31;;;14.69;100.00
20368;BME280;10343;52.402;9.796;2022-09-09T00:24:32;100375.59;;;14.71;100.00
20368;BME280;10343;52.402;9.796;2022-09-09T00:27:09;100373.13;;;14.66;100.00
20368;BME280;10343;52.402;9.796;2022-09-09T00:29:43;100375.00;;;14.64;100.00
20368;BME280;10343;52.402;9.796;2022-09-09T00:32:14;100376.84;;;14.62;100.00
20368;BME280;10343;52.402;9.796;2022-09-09T00:34:48;100386.63;;;14.63;100.00
20368;BME280;10343;52.402;9.796;2022-09-09T00:37:19;100382.25;;;14.60;100.00
20368;BME280;10343;52.402;9.796;2022-09-09T00:39:49;100387.59;;;14.60;100.00
20368;BME280;10343;52.402;9.796;2022-09-09T00:42:23;100385.91;;;14.58;100.00
20368;BME280;10343;52.402;9.796;2022-09-09T00:44:59;100383.31;;;14.56;100.00
20368;BME280;10343;52.402;9.796;2022-09-09T00:47:45;100387.00;;;14.54;100.00
20368;BME280;10343;52.402;9.796;2022-09-09T00:50:35;100376.31;;;14.54;100.00
20368;BME280;10343;52.402;9.796;2022-09-09T00:53:18;100376.53;;;14.49;100.00
20368;BME280;10343;52.402;9.796;2022-09-09T00:55:50;100375.66;;;14.49;100.00
20368;BME280;10343;52.402;9.796;2022-09-09T00:58:20;100375.66;;;14.49;100.00
20368;BME280;10343;52.402;9.796;2022-09-09T01:00:51;100383.78;;;14.46;100.00
20368;BME280;10343;52.402;9.796;2022-09-09T01:03:30;100377.53;;;14.47;100.00
20368;BME280;10343;52.402;9.796;2022-09-09T01:06:11;100386.53;;;14.44;100.00
20368;BME280;10343;52.402;9.796;2022-09-09T01:09:14;100383.00;;;14.43;100.00
20368;BME280;10343;52.402;9.796;2022-09-09T01:11:52;100395.53;;;14.41;100.00
20368;BME280;10343;52.402;9.796;2022-09-09T01:14:40;100396.53;;;14.39;100.00
20368;BME280;10343;52.402;9.796;2022-09-09T01:17:14;100391.25;;;14.37;100.00
20368;BME280;10343;52.402;9.796;2022-09-09T01:19:57;100388.66;;;14.36;100.00
20368;BME280;10343;52.402;9.796;2022-09-09T01:22:35;100392.31;;;14.33;100.00
20368;BME280;10343;52.402;9.796;2022-09-09T01:25:17;100387.81;;;14.35;100.00
20368;BME280;10343;52.402;9.796;2022-09-09T01:27:59;100379.94;;;14.32;100.00
20368;BME280;10343;52.402;9.796;2022-09-09T01:30:28;100372.88;;;14.31;100.00
20368;BME280;10343;52.402;9.796;2022-09-09T01:32:58;100380.91;;;14.30;100.00
20368;BME280;10343;52.402;9.796;2022-09-09T01:35:37;100380.91;;;14.30;100.00
20368;BME280;10343;52.402;9.796;2022-09-09T01:38:07;100366.81;;;14.27;100.00
20368;BME280;10343;52.402;9.796;2022-09-09T01:40:35;100365.94;;;14.27;100.00
20368;BME280;10343;52.402;9.796;2022-09-09T01:43:05;100373.00;;;14.28;100.00
20368;BME280;10343;52.402;9.796;2022-09-09T01:45:35;100372.88;;;14.31;100.00
20368;BME280;10343;52.402;9.796;2022-09-09T01:48:03;100378.31;;;14.28;100.00
20368;BME280;10343;52.402;9.796;2022-09-09T01:50:43;100377.47;;;14.27;100.00
20368;BME280;10343;52.402;9.796;2022-09-09T01:53:12;100377.78;;;14.20;100.00
20368;BME280;10343;52.402;9.796;2022-09-09T01:56:05;100376.00;;;14.20;100.00
20368;BME280;10343;52.402;9.796;2022-09-09T01:58:48;100383.34;;;14.15;100.00
20368;BME280;10343;52.402;9.796;2022-09-09T02:01:29;100375.25;;;14.17;100.00
20368;BME280;10343;52.402;9.796;2022-09-09T02:04:01;100381.53;;;14.16;100.00
20368;BME280;10343;52.402;9.796;2022-09-09T02:06:34;100385.13;;;14.15;100.00
20368;BME280;10343;52.402;9.796;2022-09-09T02:09:16;100387.84;;;14.13;100.00
20368;BME280;10343;52.402;9.796;2022-09-09T02:11:47;100389.78;;;14.09;100.00
20368;BME280;10343;52.402;9.796;2022-09-09T02:14:28;100387.13;;;14.09;100.00
20368;BME280;10343;52.402;9.796;2022-09-09T02:17:03;100382.84;;;14.05;100.00
20368;BME280;10343;52.402;9.796;2022-09-09T02:19:59;100375.94;;;14.01;100.00
20368;BME280;10343;52.402;9.796;2022-09-09T02:22:43;100383.16;;;13.98;100.00
20368;BME280;10343;52.402;9.796;2022-09-09T02:25:18;100381.41;;;13.98;100.00
20368;BME280;10343;52.402;9.796;2022-09-09T02:27:50;100383.00;;;14.02;100.00
20368;BME280;10343;52.402;9.796;2022-09-09T02:30:20;100375.78;;;14.04;100.00
20368;BME280;10343;52.402;9.796;2022-09-09T02:32:56;100383.63;;;13.87;100.00
20368;BME280;10343;52.402;9.796;2022-09-09T02:35:46;100380.78;;;13.91;100.00
20368;BME280;10343;52.402;9.796;2022-09-09T02:38:21;100373.28;;;13.79;100.00
20368;BME280;10343;52.402;9.796;2022-09-09T02:41:00;100380.88;;;13.88;100.00
20368;BME280;10343;52.402;9.796;2022-09-09T02:43:31;100377.28;;;13.89;100.00
20368;BME280;10343;52.402;9.796;2022-09-09T02:46:06;100372.72;;;13.93;100.00
20368;BME280;10343;52.402;9.796;2022-09-09T02:48:43;100375.25;;;13.96;100.00
20368;BME280;10343;52.402;9.796;2022-09-09T02:51:22;100372.44;;;13.99;100.00
20368;BME280;10343;52.402;9.796;2022-09-09T02:53:59;100367.66;;;14.07;100.00
20368;BME280;10343;52.402;9.796;2022-09-09T02:56:32;100375.41;;;14.14;100.00
20368;BME280;10343;52.402;9.796;2022-09-09T02:59:07;100372.44;;;14.20;100.00
20368;BME280;10343;52.402;9.796;2022-09-09T03:01:38;100374.13;;;14.22;100.00
20368;BME280;10343;52.402;9.796;2022-09-09T03:04:08;100369.69;;;14.23;100.00
20368;BME280;10343;52.402;9.796;2022-09-09T03:06:38;100376.72;;;14.24;100.00
20368;BME280;10343;52.402;9.796;2022-09-09T03:09:15;100380.22;;;14.26;100.00
20368;BME280;10343;52.402;9.796;2022-09-09T03:11:43;100384.66;;;14.25;100.00
20368;BME280;10343;52.402;9.796;2022-09-09T03:14:13;100387.28;;;14.27;100.00
20368;BME280;10343;52.402;9.796;2022-09-09T03:16:42;100388.88;;;14.31;100.00
20368;BME280;10343;52.402;9.796;2022-09-09T03:19:10;100388.88;;;14.31;100.00
20368;BME280;10343;52.402;9.796;2022-09-09T03:21:39;100384.25;;;14.35;100.00
20368;BME280;10343;52.402;9.796;2022-09-09T03:24:08;100390.34;;;14.38;100.00
20368;BME280;10343;52.402;9.796;2022-09-09T03:26:36;100383.94;;;14.42;100.00
20368;BME280;10343;52.402;9.796;2022-09-09T03:29:07;100381.53;;;14.36;100.00
20368;BME280;10343;52.402;9.796;2022-09-09T03:31:36;100382.13;;;14.43;100.00
20368;BME280;10343;52.402;9.796;2022-09-09T03:34:05;100384.72;;;14.44;100.00
20368;BME280;10343;52.402;9.796;2022-09-09T03:36:34;100388.19;;;14.47;100.00
20368;BME280;10343;52.402;9.796;2022-09-09T03:39:03;100388.47;;;14.40;100.00
20368;BME280;10343;52.402;9.796;2022-09-09T03:41:31;100385.78;;;14.40;100.00
20368;BME280;10343;52.402;9.796;2022-09-09T03:44:02;100383.88;;;14.44;100.00
20368;BME280;10343;52.402;9.796;2022-09-09T03:46:35;100386.75;;;14.39;100.00
20368;BME280;10343;52.402;9.796;2022-09-09T03:49:06;100388.34;;;14.43;100.00
20368;BME280;10343;52.402;9.796;2022-09-09T03:51:34;100384.72;;;14.44;100.00
20368;BME280;10343;52.402;9.796;2022-09-09T03:54:04;100386.47;;;14.46;100.00
20368;BME280;10343;52.402;9.796;2022-09-09T03:56:36;100381.81;;;14.51;100.00
20368;BME280;10343;52.402;9.796;2022-09-09T03:59:04;100370.97;;;14.54;100.00
20368;BME280;10343;52.402;9.796;2022-09-09T04:01:32;100369.25;;;14.53;100.00
20368;BME280;10343;52.402;9.796;2022-09-09T04:04:00;100370.84;;;14.57;100.00
20368;BME280;10343;52.402;9.796;2022-09-09T04:06:30;100383.06;;;14.63;100.00
20368;BME280;10343;52.402;9.796;2022-09-09T04:08:58;100383.94;;;14.63;100.00
20368;BME280;10343;52.402;9.796;2022-09-09T04:11:26;100378.53;;;14.65;100.00
20368;BME280;10343;52.402;9.796;2022-09-09T04:13:56;100382.00;;;14.67;100.00
20368;BME280;10343;52.402;9.796;2022-09-09T04:16:24;100380.28;;;14.66;100.00
20368;BME280;10343;52.402;9.796;2022-09-09T04:18:53;100378.47;;;14.66;100.00
20368;BME280;10343;52.402;9.796;2022-09-09T04:21:21;100376.81;;;14.64;100.00
20368;BME280;10343;52.402;9.796;2022-09-09T04:23:53;100375.88;;;14.65;100.00
20368;BME280;10343;52.402;9.796;2022-09-09T04:26:21;100383.00;;;14.64;100.00
20368;BME280;10343;52.402;9.796;2022-09-09T04:28:49;100384.19;;;14.57;100.00
20368;BME280;10343;52.402;9.796;2022-09-09T04:31:20;100391.00;;;14.64;100.00
20368;BME280;10343;52.402;9.796;2022-09-09T04:33:53;100391.81;;;14.66;100.00
20368;BME280;10343;52.402;9.796;2022-09-09T04:36:21;100389.78;;;14.51;100.00
20368;BME280;10343;52.402;9.796;2022-09-09T04:38:55;100382.19;;;14.62;100.00
20368;BME280;10343;52.402;9.796;2022-09-09T04:41:22;100387.50;;;14.62;100.00
20368;BME280;10343;52.402;9.796;2022-09-09T04:43:52;100384.91;;;14.60;100.00
20368;BME280;10343;52.402;9.796;2022-09-09T04:46:21;100390.81;;;14.69;100.00
20368;BME280;10343;52.402;9.796;2022-09-09T04:48:51;100396.81;;;14.74;100.00
20368;BME280;10343;52.402;9.796;2022-09-09T04:51:21;100397.53;;;14.77;100.00
20368;BME280;10343;52.402;9.796;2022-09-09T04:53:51;100402.59;;;14.84;100.00
20368;BME280;10343;52.402;9.796;2022-09-09T04:56:21;100391.78;;;14.87;100.00
20368;BME280;10343;52.402;9.796;2022-09-09T04:58:52;100398.84;;;14.88;100.00
20368;BME280;10343;52.402;9.796;2022-09-09T05:01:23;100398.56;;;14.94;100.00
20368;BME280;10343;52.402;9.796;2022-09-09T05:03:55;100407.38;;;14.96;100.00
20368;BME280;10343;52.402;9.796;2022-09-09T05:06:23;100402.75;;;15.00;100.00
20368;BME280;10343;52.402;9.796;2022-09-09T05:08:57;100405.34;;;15.01;100.00
20368;BME280;10343;52.402;9.796;2022-09-09T05:11:31;100404.34;;;15.04;100.00
20368;BME280;10343;52.402;9.796;2022-09-09T05:14:08;100408.66;;;15.06;100.00
20368;BME280;10343;52.402;9.796;2022-09-09T05:16:38;100400.50;;;15.09;100.00
20368;BME280;10343;52.402;9.796;2022-09-09T05:19:07;100403.06;;;15.13;100.00
20368;BME280;10343;52.402;9.796;2022-09-09T05:21:42;100398.44;;;15.16;100.00
20368;BME280;10343;52.402;9.796;2022-09-09T05:24:11;100410.00;;;15.17;100.00
20368;BME280;10343;52.402;9.796;2022-09-09T05:26:41;100404.50;;;15.20;100.00
20368;BME280;10343;52.402;9.796;2022-09-09T05:29:09;100411.56;;;15.21;100.00
20368;BME280;10343;52.402;9.796;2022-09-09T05:31:37;100404.34;;;15.23;100.00
20368;BME280;10343;52.402;9.796;2022-09-09T05:34:10;100400.66;;;15.25;100.00
20368;BME280;10343;52.402;9.796;2022-09-09T05:36:38;100416.03;;;15.20;100.00
20368;BME280;10343;52.402;9.796;2022-09-09T05:39:06;100415.31;;;15.17;100.00
20368;BME280;10343;52.402;9.796;2022-09-09T05:41:34;100416.19;;;15.17;100.00
20368;BME280;10343;52.402;9.796;2022-09-09T05:44:04;100419.50;;;15.22;100.00
20368;BME280;10343;52.402;9.796;2022-09-09T05:46:37;100417.47;;;15.27;100.00
20368;BME280;10343;52.402;9.796;2022-09-09T05:49:05;100425.56;;;15.26;100.00
20368;BME280;10343;52.402;9.796;2022-09-09T05:51:36;100424.41;;;15.32;100.00
20368;BME280;10343;52.402;9.796;2022-09-09T05:54:09;100417.19;;;15.34;100.00
20368;BME280;10343;52.402;9.796;2022-09-09T05:56:41;100416.97;;;15.38;100.00
20368;BME280;10343;52.402;9.796;2022-09-09T05:59:11;100412.28;;;15.43;100.00
20368;BME280;10343;52.402;9.796;2022-09-09T06:01:39;100417.41;;;15.48;100.00
20368;BME280;10343;52.402;9.796;2022-09-09T06:04:14;100420.72;;;15.53;100.00
20368;BME280;10343;52.402;9.796;2022-09-09T06:06:42;100425.72;;;15.61;100.00
20368;BME280;10343;52.402;9.796;2022-09-09T06:09:14;100424.47;;;15.68;100.00
20368;BME280;10343;52.402;9.796;2022-09-09T06:11:43;100429.44;;;15.76;100.00
20368;BME280;10343;52.402;9.796;2022-09-09T06:14:14;100426.41;;;15.84;100.00
20368;BME280;10343;52.402;9.796;2022-09-09T06:16:46;100425.31;;;15.88;100.00
20368;BME280;10343;52.402;9.796;2022-09-09T06:19:20;100432.47;;;15.87;100.00
20368;BME280;10343;52.402;9.796;2022-09-09T06:21:48;100426.13;;;15.90;100.00
20368;BME280;10343;52.402;9.796;2022-09-09T06:24:16;100435.72;;;15.94;100.00
20368;BME280;10343;52.402;9.796;2022-09-09T06:26:45;100431.16;;;15.96;100.00
20368;BME280;10343;52.402;9.796;2022-09-09T06:29:28;100430.69;;;16.05;100.00
20368;BME280;10343;52.402;9.796;2022-09-09T06:31:56;100425.09;;;16.10;100.00
20368;BME280;10343;52.402;9.796;2022-09-09T06:34:26;100430.38;;;16.11;100.00
20368;BME280;10343;52.402;9.796;2022-09-09T06:36:57;100424.00;;;16.14;100.00
20368;BME280;10343;52.402;9.796;2022-09-09T06:39:31;100427.41;;;16.18;100.00
20368;BME280;10343;52.402;9.796;2022-09-09T06:41:59;100424.56;;;16.21;100.00
20368;BME280;10343;52.402;9.796;2022-09-09T06:44:46;100429.28;;;16.33;100.00
20368;BME280;10343;52.402;9.796;2022-09-09T06:47:24;100425.34;;;16.40;100.00
20368;BME280;10343;52.402;9.796;2022-09-09T06:49:56;100425.13;;;16.45;100.00
20368;BME280;10343;52.402;9.796;2022-09-09T06:52:24;100425.34;;;16.58;100.00
20368;BME280;10343;52.402;9.796;2022-09-09T06:54:54;100415.09;;;16.66;100.00
20368;BME280;10343;52.402;9.796;2022-09-09T06:57:27;100422.31;;;16.81;100.00
20368;BME280;10343;52.402;9.796;2022-09-09T07:00:10;100424.22;;;16.97;100.00
20368;BME280;10343;52.402;9.796;2022-09-09T07:02:40;100422.50;;;17.12;100.00
20368;BME280;10343;52.402;9.796;2022-09-09T07:05:09;100424.13;;;17.14;100.00
20368;BME280;10343;52.402;9.796;2022-09-09T07:07:39;100421.91;;;17.23;100.00
20368;BME280;10343;52.402;9.796;2022-09-09T07:10:09;100415.78;;;17.37;100.00
20368;BME280;10343;52.402;9.796;2022-09-09T07:12:37;100411.22;;;17.39;100.00
20368;BME280;10343;52.402;9.796;2022-09-09T07:15:10;100411.28;;;17.53;100.00
20368;BME280;10343;52.402;9.796;2022-09-09T07:17:42;100414.16;;;17.66;100.00
20368;BME280;10343;52.402;9.796;2022-09-09T07:20:11;100423.28;;;17.78;100.00
20368;BME280;10343;52.402;9.796;2022-09-09T07:22:41;100415.56;;;17.88;100.00
20368;BME280;10343;52.402;9.796;2022-09-09T07:25:10;100425.06;;;17.95;100.00
20368;BME280;10343;52.402;9.796;2022-09-09T07:27:38;100424.78;;;17.99;100.00
20368;BME280;10343;52.402;9.796;2022-09-09T07:30:10;100422.94;;;18.00;100.00
20368;BME280;10343;52.402;9.796;2022-09-09T07:32:46;100430.13;;;17.99;100.00
20368;BME280;10343;52.402;9.796;2022-09-09T07:35:14;100425.81;;;17.97;100.00
20368;BME280;10343;52.402;9.796;2022-09-09T07:37:42;100428.59;;;17.95;100.00
20368;BME280;10343;52.402;9.796;2022-09-09T07:40:17;100431.44;;;17.92;100.00
20368;BME280;10343;52.402;9.796;2022-09-09T07:42:49;100420.44;;;17.81;100.00
20368;BME280;10343;52.402;9.796;2022-09-09T07:45:18;100425.31;;;17.74;100.00
20368;BME280;10343;52.402;9.796;2022-09-09T07:47:48;100424.69;;;17.69;100.00
20368;BME280;10343;52.402;9.796;2022-09-09T07:50:20;100423.56;;;17.73;100.00
20368;BME280;10343;52.402;9.796;2022-09-09T07:52:50;100428.56;;;17.79;100.00
20368;BME280;10343;52.402;9.796;2022-09-09T07:55:17;100436.59;;;17.79;100.00
20368;BME280;10343;52.402;9.796;2022-09-09T07:57:46;100439.19;;;17.81;100.00
20368;BME280;10343;52.402;9.796;2022-09-09T08:00:15;100438.94;;;17.86;100.00
20368;BME280;10343;52.402;9.796;2022-09-09T08:02:49;100438.53;;;17.93;100.00
20368;BME280;10343;52.402;9.796;2022-09-09T08:05:19;100440.69;;;18.03;100.00
20368;BME280;10343;52.402;9.796;2022-09-09T08:07:49;100441.19;;;18.09;100.00
20368;BME280;10343;52.402;9.796;2022-09-09T08:10:17;100448.09;;;18.13;100.00
20368;BME280;10343;52.402;9.796;2022-09-09T08:12:47;100440.69;;;18.03;100.00
20368;BME280;10343;52.402;9.796;2022-09-09T08:15:36;100443.03;;;17.93;100.00
20368;BME280;10343;52.402;9.796;2022-09-09T08:18:05;100438.47;;;17.95;100.00
20368;BME280;10343;52.402;9.796;2022-09-09T08:20:35;100435.81;;;18.09;100.00
20368;BME280;10343;52.402;9.796;2022-09-09T08:23:04;100440.47;;;18.22;100.00
20368;BME280;10343;52.402;9.796;2022-09-09T08:25:33;100430.94;;;18.32;100.00
20368;BME280;10343;52.402;9.796;2022-09-09T08:28:02;100432.78;;;18.46;100.00
20368;BME280;10343;52.402;9.796;2022-09-09T08:30:31;100437.78;;;18.52;100.00
20368;BME280;10343;52.402;9.796;2022-09-09T08:32:59;100438.06;;;18.62;98.55
20368;BME280;10343;52.402;9.796;2022-09-09T08:35:28;100438.22;;;18.75;98.67
20368;BME280;10343;52.402;9.796;2022-09-09T08:37:59;100437.81;;;18.81;98.02
20368;BME280;10343;52.402;9.796;2022-09-09T08:40:31;100452.09;;;18.81;96.55
20368;BME280;10343;52.402;9.796;2022-09-09T08:43:04;100445.78;;;18.82;97.44
20368;BME280;10343;52.402;9.796;2022-09-09T08:45:35;100452.84;;;18.99;97.24
20368;BME280;10343;52.402;9.796;2022-09-09T08:48:15;100450.88;;;19.16;95.04
20368;BME280;10343;52.402;9.796;2022-09-09T08:50:50;100457.13;;;19.31;93.58
20368;BME280;10343;52.402;9.796;2022-09-09T08:53:27;100455.22;;;19.33;91.62
20368;BME280;10343;52.402;9.796;2022-09-09T08:56:01;100462.31;;;19.34;91.25
20368;BME280;10343;52.402;9.796;2022-09-09T08:58:42;100467.09;;;19.43;90.90
20368;BME280;10343;52.402;9.796;2022-09-09T09:01:29;100464.00;;;19.64;87.57
20368;BME280;10343;52.402;9.796;2022-09-09T09:04:10;100462.66;;;19.71;84.91
20368;BME280;10343;52.402;9.796;2022-09-09T09:06:50;100472.78;;;19.95;84.80
20368;BME280;10343;52.402;9.796;2022-09-09T09:09:28;100470.00;;;19.96;81.69
20368;BME280;10343;52.402;9.796;2022-09-09T09:12:00;100467.47;;;20.20;80.94
20368;BME280;10343;52.402;9.796;2022-09-09T09:14:35;100465.19;;;20.42;80.05
20368;BME280;10343;52.402;9.796;2022-09-09T09:17:17;100476.47;;;20.74;80.10
20368;BME280;10343;52.402;9.796;2022-09-09T09:19:48;100470.03;;;20.90;80.02
20368;BME280;10343;52.402;9.796;2022-09-09T09:22:20;100473.25;;;20.95;77.19
20368;BME280;10343;52.402;9.796;2022-09-09T09:24:55;100471.09;;;21.00;75.39
20368;BME280;10343;52.402;9.796;2022-09-09T09:27:31;100469.16;;;20.76;74.91
20368;BME280;10343;52.402;9.796;2022-09-09T09:30:12;100475.13;;;20.67;75.07
20368;BME280;10343;52.402;9.796;2022-09-09T09:33:00;100470.66;;;20.80;76.15
20368;BME280;10343;52.402;9.796;2022-09-09T09:35:30;100471.31;;;20.97;75.79
20368;BME280;10343;52.402;9.796;2022-09-09T09:38:13;100461.81;;;21.04;73.00
20368;BME280;10343;52.402;9.796;2022-09-09T09:41:05;100463.97;;;21.12;70.88
20368;BME280;10343;52.402;9.796;2022-09-09T09:43:34;100457.06;;;21.20;69.23
20368;BME280;10343;52.402;9.796;2022-09-09T09:46:19;100472.59;;;21.30;70.28
20368;BME280;10343;52.402;9.796;2022-09-09T09:48:58;100465.44;;;21.54;71.38
20368;BME280;10343;52.402;9.796;2022-09-09T09:51:28;100458.09;;;21.57;68.35
20368;BME280;10343;52.402;9.796;2022-09-09T09:54:09;100458.22;;;21.55;68.88
20368;BME280;10343;52.402;9.796;2022-09-09T09:56:46;100452.38;;;21.48;71.19
20368;BME280;10343;52.402;9.796;2022-09-09T09:59:22;100446.03;;;21.36;72.66
20368;BME280;10343;52.402;9.796;2022-09-09T10:02:19;100447.56;;;21.28;70.79
20368;BME280;10343;52.402;9.796;2022-09-09T10:05:01;100447.81;;;21.12;71.17
20368;BME280;10343;52.402;9.796;2022-09-09T10:07:32;100444.91;;;21.02;76.42
20368;BME280;10343;52.402;9.796;2022-09-09T10:10:02;100443.50;;;21.09;73.67
20368;BME280;10343;52.402;9.796;2022-09-09T10:12:38;100441.94;;;21.31;72.85
20368;BME280;10343;52.402;9.796;2022-09-09T10:15:23;100431.13;;;21.57;71.66
20368;BME280;10343;52.402;9.796;2022-09-09T10:18:02;100422.25;;;21.92;71.33
20368;BME280;10343;52.402;9.796;2022-09-09T10:20:37;100429.00;;;22.21;67.70
20368;BME280;10343;52.402;9.796;2022-09-09T10:23:19;100424.16;;;22.38;64.35
20368;BME280;10343;52.402;9.796;2022-09-09T10:26:05;100422.00;;;22.54;63.74
20368;BME280;10343;52.402;9.796;2022-09-09T10:28:53;100422.72;;;22.45;65.80
20368;BME280;10343;52.402;9.796;2022-09-09T10:31:30;100421.63;;;22.12;65.02
20368;BME280;10343;52.402;9.796;2022-09-09T10:34:13;100418.69;;;21.91;66.39
20368;BME280;10343;52.402;9.796;2022-09-09T10:36:49;100428.06;;;21.74;67.16
20368;BME280;10343;52.402;9.796;2022-09-09T10:39:31;100427.88;;;21.51;67.33
20368;BME280;10343;52.402;9.796;2022-09-09T10:42:12;100428.38;;;21.19;68.06
20368;BME280;10343;52.402;9.796;2022-09-09T10:44:59;100435.41;;;21.09;68.18
20368;BME280;10343;52.402;9.796;2022-09-09T10:47:51;100433.38;;;21.00;68.64
20368;BME280;10343;52.402;9.796;2022-09-09T10:50:34;100425.59;;;20.82;69.75
20368;BME280;10343;52.402;9.796;2022-09-09T10:53:35;100433.16;;;20.77;71.36
20368;BME280;10343;52.402;9.796;2022-09-09T10:56:07;100443.03;;;20.64;71.72
20368;BME280;10343;52.402;9.796;2022-09-09T10:58:42;100445.94;;;20.61;72.42
20368;BME280;10343;52.402;9.796;2022-09-09T11:01:16;100447.31;;;20.53;72.96
20368;BME280;10343;52.402;9.796;2022-09-09T11:03:50;100444.00;;;20.63;72.89
20368;BME280;10343;52.402;9.796;2022-09-09T11:06:22;100440.94;;;20.69;72.10
20368;BME280;10343;52.402;9.796;2022-09-09T11:08:51;100420.44;;;20.79;71.86
20368;BME280;10343;52.402;9.796;2022-09-09T11:11:27;100431.97;;;20.81;71.96
20368;BME280;10343;52.402;9.796;2022-09-09T11:14:01;100435.31;;;20.72;72.83
20368;BME280;10343;52.402;9.796;2022-09-09T11:16:35;100431.28;;;20.65;74.62
20368;BME280;10343;52.402;9.796;2022-09-09T11:19:14;100431.81;;;20.44;75.07
20368;BME280;10343;52.402;9.796;2022-09-09T11:21:46;100422.97;;;20.42;77.36
20368;BME280;10343;52.402;9.796;2022-09-09T11:24:22;100416.69;;;20.29;76.52
20368;BME280;10343;52.402;9.796;2022-09-09T11:26:56;100421.59;;;20.09;80.67
20368;BME280;10343;52.402;9.796;2022-09-09T11:35:28;100449.13;;;20.00;80.34
20368;BME280;10343;52.402;9.796;2022-09-09T11:38:25;100467.34;;;19.82;79.85
20368;BME280;10343;52.402;9.796;2022-09-09T11:40:55;100464.78;;;19.51;80.80
20368;BME280;10343;52.402;9.796;2022-09-09T11:43:29;100476.72;;;19.18;83.12
20368;BME280;10343;52.402;9.796;2022-09-09T11:46:01;100471.53;;;19.01;80.33
20368;BME280;10343;52.402;9.796;2022-09-09T11:48:33;100479.53;;;18.72;81.86
20368;BME280;10343;52.402;9.796;2022-09-09T11:51:06;100471.25;;;18.61;80.38
20368;BME280;10343;52.402;9.796;2022-09-09T11:53:50;100470.81;;;18.38;85.89
20368;BME280;10343;52.402;9.796;2022-09-09T11:56:29;100477.13;;;18.37;86.37
20368;BME280;10343;52.402;9.796;2022-09-09T11:59:00;100475.56;;;18.33;86.77
20368;BME280;10343;52.402;9.796;2022-09-09T12:01:39;100472.16;;;18.15;86.90
20368;BME280;10343;52.402;9.796;2022-09-09T12:04:34;100465.06;;;18.14;86.67
20368;BME280;10343;52.402;9.796;2022-09-09T12:07:05;100465.09;;;17.98;86.59
20368;BME280;10343;52.402;9.796;2022-09-09T12:09:52;100456.59;;;18.06;86.13
20368;BME280;10343;52.402;9.796;2022-09-09T12:12:26;100457.28;;;18.09;86.70
20368;BME280;10343;52.402;9.796;2022-09-09T12:15:16;100452.09;;;18.06;86.55
20368;BME280;10343;52.402;9.796;2022-09-09T12:17:50;100461.69;;;18.10;87.57
20368;BME280;10343;52.402;9.796;2022-09-09T12:20:20;100460.06;;;18.08;89.35
20368;BME280;10343;52.402;9.796;2022-09-09T12:23:19;100464.19;;;18.13;90.12
20368;BME280;10343;52.402;9.796;2022-09-09T12:25:58;100466.13;;;18.11;90.32
20368;BME280;10343;52.402;9.796;2022-09-09T12:28:42;100471.13;;;18.17;93.54
20368;BME280;10343;52.402;9.796;2022-09-09T12:31:16;100462.31;;;18.15;92.18
20368;BME280;10343;52.402;9.796;2022-09-09T12:33:48;100468.66;;;18.59;92.39
20368;BME280;10343;52.402;9.796;2022-09-09T12:36:18;100467.91;;;19.16;90.67
20368;BME280;10343;52.402;9.796;2022-09-09T12:38:48;100453.91;;;19.67;84.38
20368;BME280;10343;52.402;9.796;2022-09-09T12:41:21;100451.34;;;20.20;81.61
20368;BME280;10343;52.402;9.796;2022-09-09T12:43:50;100452.53;;;20.69;77.99
20368;BME280;10343;52.402;9.796;2022-09-09T12:46:24;100441.22;;;21.16;81.46
20368;BME280;10343;52.402;9.796;2022-09-09T12:48:56;100438.13;;;21.59;79.02
20368;BME280;10343;52.402;9.796;2022-09-09T12:51:28;100438.50;;;22.03;75.23
20368;BME280;10343;52.402;9.796;2022-09-09T12:53:58;100425.91;;;22.39;71.84
20368;BME280;10343;52.402;9.796;2022-09-09T12:56:28;100431.47;;;22.60;67.16
20368;BME280;10343;52.402;9.796;2022-09-09T12:58:58;100426.19;;;22.70;65.59
20368;BME280;10343;52.402;9.796;2022-09-09T13:01:28;100428.31;;;22.78;64.79
20368;BME280;10343;52.402;9.796;2022-09-09T13:03:59;100430.75;;;22.69;63.75
20368;BME280;10343;52.402;9.796;2022-09-09T13:06:28;100428.16;;;22.21;67.36
20368;BME280;10343;52.402;9.796;2022-09-09T13:08:58;100425.19;;;22.37;66.49
20368;BME280;10343;52.402;9.796;2022-09-09T13:11:29;100423.72;;;22.55;64.63
20368;BME280;10343;52.402;9.796;2022-09-09T13:13:58;100422.88;;;22.55;64.33
20368;BME280;10343;52.402;9.796;2022-09-09T13:16:28;100421.53;;;22.25;64.51
20368;BME280;10343;52.402;9.796;2022-09-09T13:19:01;100422.75;;;21.97;65.56
20368;BME280;10343;52.402;9.796;2022-09-09T13:21:34;100421.44;;;21.78;65.66
20368;BME280;10343;52.402;9.796;2022-09-09T13:24:03;100420.94;;;21.73;69.48